Wind From: 10-12-2017 19:04 Until: 11-12-2017 16:00 warning for: Wind Level: Orange info button

Power and phone distribution networks may be disrupted for relatively long periods., Roofs and chimneys can be damaged. , Tree branches may break. , Vehicles can be deported. , Traffic may be disrupted, particularly on secondary roads in forest areas. Limit your trips. , Limit your speed in highway driving, especially if you drive a vehicle or hitch sensitive to wind. , Do not go for walks in forests or along the coast., In town, be vigilant against possible falling objects., Do not work on roofs and do not touch any electrical line fallen on the ground., Store or secure sensitive objects to wind or likely to be damaged., Always install power generators outside buildings. 


Meteo18 Weather Cam more information Meteo18 Weather Cam


Thunder radar more information blitzortung!


Rain radar more information rain snow radar


Visit our other weather sites:

Template documentation
and downloads

And another site



Weather Underground History page Text

Daily Summary for January 26, 2017 Units:  English    Metric   Both
« Previous Day
Next Day »
Daily Weekly Monthly Yearly Custom
  High: Low: Average:
Temperature: 41.9 °F 17.8 °F 29.3 °F
Dew Point: 34.7 °F 15.6 °F 23.4 °F
Humidity: 92 % 57 % 79 %
Wind Speed: 13 mph 0 mph 2.2 mph
Wind Gust: 19 mph - -
Wind:- - East
Pressure: 30.3 in 30 in -
Precipitation: 0.01 in    
Historical Graphs
 
 
Tabular Data for January 26, 2017
Time Temperature Dew Point Pressure Wind Wind Speed Wind Gust Humidity Rainfall Rate (Hourly)
00:02 23 °F 19.2 °F 30.3 in Calm   3 mph 85 % 0 in
00:12 22.8 °F 19 °F 30.3 in Calm   3 mph 85 % 0 in
00:17 22.6 °F 19 °F 30.3 in Calm   1 mph 86 % 0 in
00:22 22.6 °F 19 °F 30.3 in Calm   1 mph 86 % 0 in
00:27 22.6 °F 19 °F 30.3 in Calm   1 mph 86 % 0 in
00:32 22.5 °F 18.9 °F 30.3 in Calm   1 mph 86 % 0 in
00:37 22.3 °F 19 °F 30.3 in Calm   1 mph 87 % 0 in
00:42 22.3 °F 19 °F 30.3 in ENE 1 mph 1 mph 87 % 0 in
00:52 22.5 °F 18.9 °F 30.3 in ENE 1 mph 1 mph 86 % 0 in
00:57 22.5 °F 18.9 °F 30.3 in NE 1 mph 3 mph 86 % 0 in
01:02 22.3 °F 18.7 °F 30.3 in ENE 3 mph 3 mph 86 % 0 in
01:12 21.9 °F 18.7 °F 30.3 in Calm   4 mph 87 % 0 in
01:17 21.7 °F 18.5 °F 30.3 in NNE 2 mph 4 mph 87 % 0 in
01:22 21.7 °F 18.5 °F 30.3 in Calm   4 mph 87 % 0 in
01:27 21.7 °F 18.5 °F 30.3 in Calm   3 mph 87 % 0 in
01:32 21.6 °F 18.3 °F 30.3 in Calm   3 mph 87 % 0 in
01:37 21.6 °F 18.5 °F 30.3 in Calm   2 mph 88 % 0 in
01:42 21.6 °F 18.5 °F 30.3 in ENE 1 mph 2 mph 88 % 0 in
01:47 21.4 °F 18.3 °F 30.3 in ENE 2 mph 2 mph 88 % 0 in
01:52 21.6 °F 18.5 °F 30.3 in East 2 mph 2 mph 88 % 0 in
01:57 21.4 °F 18.1 °F 30.3 in East 2 mph 4 mph 87 % 0 in
02:02 21.2 °F 18.1 °F 30.3 in ENE 1 mph 4 mph 88 % 0 in
02:12 21.4 °F 18.3 °F 30.3 in Calm   4 mph 88 % 0 in
02:17 21.2 °F 18.1 °F 30.3 in ENE 2 mph 3 mph 88 % 0 in
02:22 21 °F 18 °F 30.3 in ENE 1 mph 3 mph 88 % 0 in
02:32 21 °F 18 °F 30.3 in Calm   3 mph 88 % 0 in
02:37 21 °F 18 °F 30.2 in NE 1 mph 3 mph 88 % 0 in
02:42 21 °F 18.3 °F 30.2 in Calm   3 mph 89 % 0 in
02:47 21 °F 18.3 °F 30.2 in Calm   2 mph 89 % 0 in
02:52 21 °F 18 °F 30.2 in Calm   2 mph 88 % 0 in
02:57 21 °F 18 °F 30.2 in Calm   2 mph 88 % 0 in
03:02 20.7 °F 17.6 °F 30.2 in Calm   1 mph 88 % 0 in
03:12 20.3 °F 17.6 °F 30.2 in Calm   1 mph 89 % 0 in
03:17 20.1 °F 17.4 °F 30.2 in Calm   1 mph 89 % 0 in
03:22 20.1 °F 17.4 °F 30.2 in Calm   1 mph 89 % 0 in
03:27 20.1 °F 17.4 °F 30.2 in Calm   1 mph 89 % 0 in
03:32 20.5 °F 17.8 °F 30.2 in NNE 1 mph 1 mph 89 % 0 in
03:37 20.5 °F 17.8 °F 30.2 in NE 1 mph 1 mph 89 % 0 in
03:42 20.7 °F 18 °F 30.2 in NE 1 mph 2 mph 89 % 0 in
03:47 20.7 °F 18 °F 30.2 in NE 3 mph 3 mph 89 % 0 in
03:52 20.8 °F 18.1 °F 30.2 in NE 1 mph 2 mph 89 % 0 in
03:57 20.7 °F 18 °F 30.2 in NNE 2 mph 3 mph 89 % 0 in
04:02 20.7 °F 17.6 °F 30.2 in NE 1 mph 3 mph 88 % 0 in
04:12 20.1 °F 17.4 °F 30.2 in Calm   3 mph 89 % 0 in
04:17 19.9 °F 17.2 °F 30.2 in Calm   2 mph 89 % 0 in
04:22 19.9 °F 17.4 °F 30.2 in NE 1 mph 2 mph 90 % 0 in
04:27 20.1 °F 17.6 °F 30.2 in NE 2 mph 2 mph 90 % 0 in
04:32 20.1 °F 17.6 °F 30.2 in NE 2 mph 3 mph 90 % 0 in
04:37 20.1 °F 17.4 °F 30.2 in NE 2 mph 4 mph 89 % 0 in
04:42 19.9 °F 17.2 °F 30.2 in NE 2 mph 5 mph 89 % 0 in
04:47 20.1 °F 17.6 °F 30.2 in NE 2 mph 5 mph 90 % 0 in
04:52 20.1 °F 17.6 °F 30.2 in NE 5 mph 5 mph 90 % 0 in
04:57 20.1 °F 17.6 °F 30.2 in ENE 3 mph 5 mph 90 % 0 in
05:02 20.1 °F 17.6 °F 30.2 in NE 2 mph 5 mph 90 % 0 in
05:07 20.1 °F 17.6 °F 30.2 in NE 2 mph 5 mph 90 % 0 in
05:12 20.1 °F 17.6 °F 30.2 in NE 5 mph 5 mph 90 % 0 in
05:17 20.1 °F 17.4 °F 30.2 in NE 3 mph 5 mph 89 % 0 in
05:22 19.9 °F 17.4 °F 30.2 in ENE 2 mph 5 mph 90 % 0 in
05:27 20.1 °F 17.6 °F 30.2 in NE 3 mph 5 mph 90 % 0 in
05:32 19.9 °F 17.4 °F 30.2 in NE 2 mph 4 mph 90 % 0 in
05:37 19.9 °F 17.4 °F 30.2 in NE 3 mph 4 mph 90 % 0 in
05:42 19.9 °F 17.4 °F 30.2 in NE 4 mph 4 mph 90 % 0 in
05:47 19.9 °F 17.4 °F 30.2 in NE 5 mph 5 mph 90 % 0 in
05:52 19.9 °F 17.4 °F 30.2 in NNE 4 mph 5 mph 90 % 0 in
05:57 20.1 °F 17.6 °F 30.2 in NE 2 mph 5 mph 90 % 0 in
06:02 19.9 °F 17.4 °F 30.2 in NE 1 mph 6 mph 90 % 0 in
06:07 19.9 °F 17.4 °F 30.2 in NE 3 mph 6 mph 90 % 0 in
06:12 19.8 °F 17.2 °F 30.2 in NNE 1 mph 5 mph 90 % 0 in
06:17 19.8 °F 17.2 °F 30.2 in NNE 1 mph 5 mph 90 % 0 in
06:22 19.6 °F 17.1 °F 30.2 in NNE 1 mph 3 mph 90 % 0 in
06:32 19.2 °F 16.7 °F 30.2 in Calm   3 mph 90 % 0 in
06:42 19.2 °F 17.1 °F 30.2 in NNE 2 mph 2 mph 91 % 0 in
06:47 19.2 °F 16.7 °F 30.2 in NNE 2 mph 2 mph 90 % 0 in
06:52 19 °F 16.9 °F 30.2 in NNE 1 mph 4 mph 91 % 0 in
07:02 19 °F 16.9 °F 30.2 in NNE 2 mph 4 mph 91 % 0 in
07:07 19 °F 16.9 °F 30.2 in NNE 1 mph 4 mph 91 % 0 in
07:17 18.9 °F 16.7 °F 30.2 in NNE 1 mph 3 mph 91 % 0 in
07:22 18.9 °F 16.7 °F 30.2 in Calm   2 mph 91 % 0 in
07:27 18.9 °F 16.7 °F 30.2 in Calm   2 mph 91 % 0 in
07:32 18.7 °F 16.5 °F 30.2 in Calm   2 mph 91 % 0 in
07:37 18.5 °F 16.3 °F 30.2 in Calm   2 mph 91 % 0 in
07:42 18.3 °F 16.2 °F 30.2 in Calm     91 % 0 in
07:47 18.3 °F 16.2 °F 30.2 in Calm     91 % 0 in
07:52 18.1 °F 16.2 °F 30.2 in Calm     92 % 0 in
07:57 18.1 °F 16.2 °F 30.2 in Calm     92 % 0 in
08:02 18.3 °F 16.3 °F 30.2 in Calm   1 mph 92 % 0 in
08:07 18.3 °F 16.3 °F 30.2 in Calm   1 mph 92 % 0 in
08:12 18.1 °F 16.2 °F 30.2 in Calm   1 mph 92 % 0 in
08:17 18.1 °F 16 °F 30.2 in Calm   1 mph 91 % 0 in
08:22 18 °F 16 °F 30.2 in Calm   1 mph 92 % 0 in
08:27 17.8 °F 15.6 °F 30.2 in Calm   1 mph 91 % 0 in
08:32 18.1 °F 16.2 °F 30.2 in Calm   1 mph 92 % 0 in
08:37 18.1 °F 16.2 °F 30.2 in Calm   1 mph 92 % 0 in
08:42 18.3 °F 16.3 °F 30.2 in Calm   1 mph 92 % 0 in
08:47 18.7 °F 16.7 °F 30.2 in Calm   1 mph 92 % 0 in
08:52 18.7 °F 16.5 °F 30.2 in Calm   1 mph 91 % 0 in
08:57 19 °F 17.1 °F 30.2 in Calm   1 mph 92 % 0 in
09:02 19.6 °F 17.4 °F 30.2 in Calm   1 mph 91 % 0 in
09:07 19.8 °F 17.6 °F 30.2 in Calm   1 mph 91 % 0 in
09:12 20.1 °F 17.6 °F 30.2 in Calm     90 % 0 in
09:17 20.5 °F 18 °F 30.2 in Calm     90 % 0 in
09:22 20.8 °F 18.1 °F 30.2 in Calm     89 % 0 in
09:27 21 °F 18.3 °F 30.2 in Calm     89 % 0 in
09:32 21.6 °F 19 °F 30.2 in Calm     90 % 0 in
09:37 22.3 °F 19.6 °F 30.2 in Calm     89 % 0 in
09:42 23.2 °F 19.9 °F 30.2 in Calm   2 mph 87 % 0 in
09:47 23.4 °F 19.8 °F 30.2 in Calm   2 mph 86 % 0 in
09:52 23.7 °F 19.9 °F 30.2 in East 1 mph 3 mph 85 % 0 in
09:57 23.9 °F 20.1 °F 30.2 in ENE 2 mph 3 mph 85 % 0 in
10:02 24.1 °F 20.3 °F 30.2 in NE 1 mph 5 mph 85 % 0 in
10:07 24.4 °F 20.7 °F 30.2 in Calm   5 mph 85 % 0 in
10:12 24.8 °F 20.3 °F 30.2 in Calm   5 mph 83 % 0 in
10:17 25 °F 20.5 °F 30.2 in ENE 2 mph 5 mph 83 % 0 in
10:22 24.6 °F 20.1 °F 30.2 in Calm   5 mph 83 % 0 in
10:27 25.2 °F 20.7 °F 30.2 in Calm   5 mph 83 % 0 in
10:32 25.3 °F 20.8 °F 30.2 in Calm   6 mph 83 % 0 in
10:42 25.5 °F 21 °F 30.2 in Calm   3 mph 83 % 0 in
10:47 25.9 °F 21.4 °F 30.2 in ENE 1 mph 3 mph 83 % 0 in
10:52 26.2 °F 21.7 °F 30.2 in Calm   3 mph 83 % 0 in
11:02 27.3 °F 22.8 °F 30.2 in Calm   3 mph 83 % 0 in
11:07 28.6 °F 23.5 °F 30.2 in ENE 3 mph 3 mph 81 % 0 in
11:12 28 °F 22.6 °F 30.2 in ESE 1 mph 5 mph 80 % 0 in
11:17 28 °F 22.5 °F 30.2 in East 3 mph 5 mph 79 % 0 in
11:22 28.2 °F 22.6 °F 30.2 in SSE 3 mph 5 mph 79 % 0 in
11:27 28.6 °F 22.8 °F 30.2 in East 3 mph 5 mph 79 % 0 in
11:32 29.1 °F 23.4 °F 30.2 in Calm   5 mph 79 % 0 in
11:37 29.5 °F 23.5 °F 30.2 in ESE 3 mph 5 mph 78 % 0 in
11:42 29.7 °F 23.7 °F 30.2 in ENE 4 mph 7 mph 78 % 0 in
11:52 30.4 °F 24.1 °F 30.2 in ENE 1 mph 9 mph 77 % 0 in
11:57 30.7 °F 24.4 °F 30.2 in East 3 mph 9 mph 77 % 0 in
12:07 30.7 °F 23.7 °F 30.2 in SE 1 mph 7 mph 75 % 0 in
12:12 31.5 °F 24.8 °F 30.2 in East 3 mph 7 mph 76 % 0 in
12:17 31.8 °F 25.2 °F 30.2 in East 4 mph 6 mph 76 % 0 in
12:22 32.4 °F 25.3 °F 30.2 in SSE 1 mph 6 mph 75 % 0 in
12:32 32.9 °F 25.5 °F 30.2 in SE 1 mph 6 mph 74 % 0 in
12:37 33.4 °F 25.7 °F 30.2 in ENE 4 mph 6 mph 73 % 0 in
12:42 33.3 °F 25.2 °F 30.1 in East 4 mph 4 mph 72 % 0 in
12:47 33.1 °F 25 °F 30.1 in East 3 mph 4 mph 72 % 0 in
12:57 33.8 °F 25.3 °F 30.1 in ENE 6 mph 6 mph 71 % 0 in
13:02 34 °F 25.5 °F 30.1 in East 5 mph 7 mph 71 % 0 in
13:07 34.2 °F 25.7 °F 30.1 in ESE 3 mph 7 mph 71 % 0 in
13:12 34.3 °F 25.9 °F 30.1 in ESE 3 mph 7 mph 71 % 0 in
13:17 35.1 °F 26.2 °F 30.1 in SE 4 mph 7 mph 70 % 0 in
13:22 35.1 °F 26.6 °F 30.1 in SE 6 mph 7 mph 71 % 0 in
13:27 35.2 °F 26.4 °F 30.1 in SSE 4 mph 8 mph 70 % 0 in
13:32 36 °F 26.8 °F 30.1 in East 3 mph 8 mph 69 % 0 in
13:37 36.3 °F 26.4 °F 30.1 in SE 7 mph 8 mph 67 % 0 in
13:42 37 °F 27.1 °F 30.1 in South 2 mph 12 mph 67 % 0 in
13:47 37.6 °F 27.7 °F 30.1 in SSE 5 mph 12 mph 67 % 0 in
13:52 37.6 °F 26.6 °F 30.1 in SE 2 mph 12 mph 64 % 0 in
13:57 37.4 °F 26.8 °F 30.1 in ESE 4 mph 9 mph 65 % 0 in
14:02 37.6 °F 27.3 °F 30.1 in SE 4 mph 9 mph 66 % 0 in
14:07 37.6 °F 27 °F 30.1 in ESE 4 mph 8 mph 65 % 0 in
14:12 38.1 °F 27.3 °F 30.1 in East 4 mph 8 mph 65 % 0 in
14:17 38.5 °F 27 °F 30.1 in ENE 3 mph 8 mph 63 % 0 in
14:22 39 °F 27.1 °F 30.1 in East 5 mph 8 mph 62 % 0 in
14:27 39 °F 26.8 °F 30.1 in ENE 8 mph 8 mph 61 % 0 in
14:32 39.2 °F 27 °F 30.1 in East 8 mph 11 mph 61 % 0 in
14:37 39.4 °F 27.1 °F 30.1 in East 5 mph 11 mph 61 % 0 in
14:42 39.6 °F 27.1 °F 30.1 in East 4 mph 11 mph 61 % 0 in
14:47 39.7 °F 27.3 °F 30.1 in East 3 mph 10 mph 61 % 0 in
14:52 40.3 °F 27.9 °F 30.1 in SE 2 mph 10 mph 61 % 0 in
14:57 40.3 °F 27.5 °F 30.1 in ESE 2 mph 10 mph 60 % 0 in
15:07 40.6 °F 27.9 °F 30.1 in ESE 3 mph 9 mph 60 % 0 in
15:12 40.8 °F 27.7 °F 30.1 in East 5 mph 9 mph 59 % 0 in
15:17 41.2 °F 27.5 °F 30.1 in ENE 7 mph 7 mph 58 % 0 in
15:22 41.4 °F 27.3 °F 30.1 in ENE 4 mph 9 mph 57 % 0 in
15:27 41.4 °F 27.3 °F 30.1 in ESE 1 mph 9 mph 57 % 0 in
15:32 41.5 °F 27.9 °F 30.1 in East 3 mph 9 mph 58 % 0 in
15:37 41.9 °F 28.2 °F 30.1 in East 5 mph 9 mph 58 % 0 in
15:42 41.7 °F 27.7 °F 30.1 in ESE 1 mph 8 mph 57 % 0 in
15:47 41.7 °F 27.7 °F 30.1 in East 2 mph 8 mph 57 % 0 in
15:52 41.9 °F 28.2 °F 30.1 in East 3 mph 8 mph 58 % 0 in
15:57 41.9 °F 27.9 °F 30.1 in ENE 3 mph 8 mph 57 % 0 in
16:02 41.7 °F 28 °F 30.1 in ENE 3 mph 6 mph 58 % 0 in
16:12 41.7 °F 28 °F 30.1 in ENE 6 mph 7 mph 58 % 0 in
16:17 41.7 °F 28 °F 30.1 in East 3 mph 10 mph 58 % 0 in
16:22 41.7 °F 28 °F 30.1 in East 1 mph 10 mph 58 % 0 in
16:27 41.5 °F 27.5 °F 30.1 in ENE 1 mph 10 mph 57 % 0 in
16:32 41.5 °F 27.9 °F 30.1 in East 2 mph 9 mph 58 % 0 in
16:37 41.2 °F 27.9 °F 30.1 in ENE 1 mph 5 mph 59 % 0 in
16:42 40.8 °F 28 °F 30.1 in ENE 2 mph 5 mph 60 % 0 in
16:47 40.6 °F 28.2 °F 30.1 in ENE 2 mph 4 mph 61 % 0 in
16:52 40.5 °F 28 °F 30.1 in Calm   4 mph 61 % 0 in
16:57 40.5 °F 28 °F 30.1 in East 1 mph 4 mph 61 % 0 in
17:02 40.5 °F 28 °F 30.1 in East 1 mph 4 mph 61 % 0 in
17:07 40.1 °F 27.7 °F 30.1 in Calm   2 mph 61 % 0 in
17:12 39.9 °F 28 °F 30.1 in Calm   2 mph 62 % 0 in
17:17 39.6 °F 27.7 °F 30.1 in East 1 mph 2 mph 62 % 0 in
17:22 39.6 °F 27.7 °F 30.1 in Calm   1 mph 62 % 0 in
17:27 39.7 °F 27.9 °F 30.1 in Calm   1 mph 62 % 0 in
17:32 39.4 °F 27.5 °F 30.1 in Calm   1 mph 62 % 0 in
17:37 38.8 °F 27.3 °F 30.1 in Calm   1 mph 63 % 0 in
17:42 38.7 °F 27.1 °F 30.1 in Calm   1 mph 63 % 0 in
17:47 38.1 °F 27 °F 30.1 in Calm   1 mph 64 % 0 in
17:52 38.1 °F 27 °F 30.1 in Calm   1 mph 64 % 0 in
17:57 37.9 °F 27.1 °F 30.1 in NE 3 mph   65 % 0 in
18:02 37.9 °F 26.8 °F 30 in NNE 1 mph 2 mph 64 % 0 in
18:12 37.8 °F 26.6 °F 30 in NE 1 mph 3 mph 64 % 0 in
18:17 37.6 °F 27 °F 30 in NE 1 mph 3 mph 65 % 0 in
18:22 37.6 °F 27 °F 30 in NE 1 mph 3 mph 65 % 0 in
18:32 36.5 °F 26.6 °F 30 in East 1 mph 2 mph 67 % 0 in
18:37 36 °F 26.8 °F 30 in Calm   2 mph 69 % 0 in
18:42 36 °F 27.1 °F 30 in Calm   3 mph 70 % 0 in
18:47 36 °F 26.8 °F 30.1 in Calm   3 mph 69 % 0 in
18:52 35.4 °F 26.2 °F 30.1 in SSE 1 mph 2 mph 69 % 0 in
19:02 34 °F 25.9 °F 30.1 in Calm   2 mph 72 % 0 in
19:07 34.2 °F 26.1 °F 30.1 in Calm   2 mph 72 % 0 in
19:12 34 °F 25.9 °F 30.1 in Calm   2 mph 72 % 0 in
19:17 34.2 °F 26.1 °F 30.1 in Calm   1 mph 72 % 0 in
19:22 34.3 °F 25.9 °F 30.1 in Calm   1 mph 71 % 0 in
19:32 34.5 °F 25.7 °F 30.1 in SE 3 mph 3 mph 70 % 0 in
19:37 34.5 °F 26.1 °F 30.1 in ESE 1 mph 5 mph 71 % 0 in
19:42 34.9 °F 26.4 °F 30.1 in ESE 3 mph 6 mph 71 % 0 in
19:47 35.4 °F 26.6 °F 30.1 in SSE 2 mph 10 mph 70 % 0 in
19:52 35.2 °F 26.8 °F 30.1 in SE 3 mph 10 mph 71 % 0 in
19:57 34.9 °F 26.8 °F 30.1 in East 2 mph 10 mph 72 % 0 in
20:02 35.1 °F 27 °F 30 in East 3 mph 10 mph 72 % 0 in
20:07 35.1 °F 27 °F 30 in East 6 mph 7 mph 72 % 0 in
20:12 35.1 °F 27 °F 30 in ESE 1 mph 7 mph 72 % 0 in
20:17 35.1 °F 27 °F 30 in ENE 10 mph 10 mph 72 % 0 in
20:22 35.1 °F 27 °F 30 in East 10 mph 11 mph 72 % 0 in
20:27 35.2 °F 27.1 °F 30 in ESE 10 mph 14 mph 72 % 0 in
20:32 35.4 °F 27.7 °F 30 in East 6 mph 14 mph 73 % 0 in
20:37 35.8 °F 28 °F 30 in East 7 mph 14 mph 73 % 0 in
20:42 35.8 °F 28.4 °F 30 in East 6 mph 12 mph 74 % 0 in
20:47 36 °F 28.4 °F 30 in SE 2 mph 12 mph 74 % 0 in
20:52 36.1 °F 28.6 °F 30 in SE 2 mph 12 mph 74 % 0 in
20:57 36.1 °F 28.9 °F 30 in East 2 mph 11 mph 75 % 0 in
21:02 36.1 °F 29.7 °F 30 in SE 4 mph 11 mph 77 % 0 in
21:07 36.9 °F 30.6 °F 30 in ESE 10 mph 14 mph 78 % 0 in
21:12 37.8 °F 31.5 °F 30 in SE 10 mph 16 mph 78 % 0 in
21:17 38.1 °F 31.8 °F 30 in SE 10 mph 16 mph 78 % 0 in
21:22 38.3 °F 32.7 °F 30 in SE 13 mph 16 mph 80 % 0 in
21:27 38.5 °F 33.4 °F 30 in SE 11 mph 18 mph 82 % 0 in
21:32 38.7 °F 34 °F 30 in SE 9 mph 18 mph 83 % 0 in
21:37 38.7 °F 34 °F 30 in SE 7 mph 19 mph 83 % 0 in
21:42 38.1 °F 34 °F 30 in SE 9 mph 19 mph 85 % 0 in
21:47 37.9 °F 34.2 °F 30 in SE 4 mph 19 mph 86 % 0.01 in
21:52 37.2 °F 33.4 °F 30 in ESE 3 mph 19 mph 86 % 0.01 in
21:57 36.9 °F 33.4 °F 30 in SSE 3 mph 16 mph 87 % 0.01 in
22:02 37.2 °F 34 °F 30 in ESE 9 mph 16 mph 88 % 0.01 in
22:12 37.6 °F 34 °F 30 in ESE 4 mph 17 mph 87 % 0.01 in
22:17 37 °F 33.6 °F 30 in SE 4 mph 17 mph 87 % 0.01 in
22:22 36.9 °F 33.6 °F 30 in SE 4 mph 17 mph 88 % 0.01 in
22:27 36.7 °F 33.4 °F 30 in SSE 3 mph 10 mph 88 % 0.01 in
22:32 36.7 °F 33.4 °F 30 in SSE 5 mph 10 mph 88 % 0.01 in
22:37 36.7 °F 33.8 °F 30 in East 6 mph 8 mph 89 % 0.01 in
22:42 36.9 °F 34 °F 30 in SSE 3 mph 8 mph 89 % 0.01 in
22:47 37 °F 34.2 °F 30 in SE 3 mph 9 mph 89 % 0 in
22:57 37.6 °F 34.7 °F 30 in SE 4 mph 9 mph 89 % 0 in
23:07 37.2 °F 34 °F 30 in SSE 4 mph 11 mph 88 % 0 in
23:12 37 °F 33.6 °F 30 in ESE 5 mph 11 mph 87 % 0 in
23:17 37 °F 33.6 °F 30 in ESE 2 mph 12 mph 87 % 0 in
23:32 36.5 °F 33.1 °F 30 in SE 2 mph 11 mph 87 % 0 in
23:37 36.3 °F 32.9 °F 30 in ESE 4 mph 7 mph 87 % 0 in
23:42 36.7 °F 32.9 °F 30 in SE 3 mph 7 mph 86 % 0 in
23:52 36.3 °F 32.2 °F 30 in ESE 4 mph 17 mph 85 % 0 in
Meteo18
Compliments of Weather Underground - 4 mb

Script developed by  Jim McMurry - jmcmurry@mwt.net Adapted for the template by  Wim van der Kuil - Leuven-Template.eu

You find our weather info also at:

European Weather Network

Weather Underground

Equipment we use:

Weather-station
Davis Vue

Weather-program
Meteohub

Weather-server
Raspberry PI 2 B+

Provider
1 and 1

Davis Vue

Meteohub

Raspberry PI 2 B+

1 and 1